Observations for CAMBRIDGE, United Kingdom (EGSC)

EGSC 171650Z 23010KT 200V260 9999 FEW030 SCT034 18/11 Q1015 
EGSC 171620Z 23012KT 9999 FEW030 SCT034 18/10 Q1015 
EGSC 171550Z 23011KT 9999 FEW030 SCT034 18/10 Q1015 
EGSC 171520Z 23012KT 200V260 9999 FEW032 SCT036 18/10 Q1015 
EGSC 171450Z 21009KT 9999 BKN037 19/10 Q1015
EGSC 171420Z 24011KT 9999 SCT036 18/10 Q1015
EGSC 171350Z 24013KT 220V280 9999 FEW036 SCT040 18/10 Q1015 
EGSC 171320Z 24012KT 9999 SCT034 SCT042 18/10 Q1015 
EGSC 171250Z 24012KT 190V270 9999 SCT040 SCT048 18/09 Q1015 
EGSC 171220Z 24014KT 9999 SCT042 SCT048 18/09 Q1015 
EGSC 171150Z 24013KT 9999 SCT034 SCT046 17/09 Q1015 
EGSC 171120Z 23009KT 190V250 9999 SCT028 SCT047 17/09 Q1015 
EGSC 171050Z 22010KT 190V250 9999 SCT027 SCT047 18/09 Q1015 
EGSC 171020Z 23013KT 190V270 9999 SCT024 17/10 Q1015
EGSC 170950Z 24011KT 9999 SCT024 17/10 Q1015
EGSC 170920Z 24012KT 200V270 9999 SCT023 17/11 Q1015
EGSC 170850Z 24012KT 9999 FEW023 16/11 Q1015
EGSC 170820Z 23011KT 9999 FEW023 15/11 Q1015
EGSC 170750Z 24010KT 9999 FEW027 14/11 Q1015
EGSC 170720Z 24012KT 9999 FEW027 15/11 Q1015
EGSC 170650Z 24012KT 9999 FEW045 14/10 Q1015